createdAt,value
2019-05-03T00:02:08.560Z,4.17
2019-05-03T00:04:42.135Z,4.50
2019-05-03T00:07:12.421Z,4.70
2019-05-03T00:09:43.016Z,4.25
2019-05-03T00:12:13.798Z,4.37
2019-05-03T00:14:46.270Z,4.55
2019-05-03T00:17:16.736Z,4.03
2019-05-03T00:19:47.269Z,4.12
2019-05-03T00:22:17.872Z,4.60
2019-05-03T00:24:48.853Z,5.20
2019-05-03T00:27:19.437Z,4.42
2019-05-03T00:29:50.005Z,4.50
2019-05-03T00:32:21.697Z,4.15
2019-05-03T00:34:53.871Z,4.40
2019-05-03T00:37:26.123Z,4.58
2019-05-03T00:40:06.839Z,4.65
2019-05-03T00:42:37.349Z,4.47
2019-05-03T00:45:08.115Z,4.72
2019-05-03T00:47:38.601Z,5.05
2019-05-03T00:50:09.239Z,4.90
2019-05-03T00:52:39.732Z,5.15
2019-05-03T00:55:16.880Z,6.17
2019-05-03T00:57:42.615Z,8.00
2019-05-03T01:00:13.287Z,9.73
2019-05-03T01:02:43.930Z,10.88
2019-05-03T01:05:14.743Z,9.93
2019-05-03T01:07:45.348Z,7.65
2019-05-03T01:10:15.905Z,6.87
2019-05-03T01:12:46.502Z,5.58
2019-05-03T01:15:24.739Z,4.37
2019-05-03T01:17:55.312Z,4.58
2019-05-03T01:20:25.891Z,4.20
2019-05-03T01:22:56.430Z,4.55
2019-05-03T01:25:32.377Z,4.00
2019-05-03T01:28:01.567Z,4.45
2019-05-03T01:30:32.235Z,4.30
2019-05-03T01:33:02.960Z,4.25
2019-05-03T01:35:33.464Z,4.30
2019-05-03T01:38:04.023Z,4.45
2019-05-03T01:40:34.851Z,4.80
2019-05-03T01:43:05.615Z,4.83
2019-05-03T01:45:36.258Z,4.75
2019-05-03T01:48:13.340Z,4.75
2019-05-03T01:50:52.179Z,4.93
2019-05-03T01:53:25.114Z,4.40
2019-05-03T01:55:55.680Z,4.15
2019-05-03T01:58:26.125Z,4.47
2019-05-03T02:01:03.348Z,4.33
2019-05-03T02:03:52.774Z,4.22
2019-05-03T02:06:23.397Z,4.70
2019-05-03T02:08:53.867Z,5.22
2019-05-03T02:11:24.373Z,4.95
2019-05-03T02:13:54.948Z,4.90
2019-05-03T02:16:25.477Z,4.85
2019-05-03T02:18:56.214Z,4.70
2019-05-03T02:21:26.738Z,4.78
2019-05-03T02:23:58.564Z,4.30
2019-05-03T02:26:29.052Z,4.30
2019-05-03T02:29:01.715Z,4.28
2019-05-03T02:31:32.888Z,4.85
2019-05-03T02:34:03.716Z,4.40
2019-05-03T02:36:35.518Z,4.53
2019-05-03T02:39:09.620Z,4.62
2019-05-03T02:41:41.237Z,4.78
2019-05-03T02:44:15.558Z,4.92
2019-05-03T02:47:10.329Z,4.75
2019-05-03T02:49:45.497Z,4.87
2019-05-03T02:52:36.391Z,4.75
2019-05-03T02:55:08.283Z,4.85
2019-05-03T02:57:38.751Z,4.37
2019-05-03T03:00:10.913Z,4.75
2019-05-03T03:02:41.695Z,4.80
2019-05-03T03:05:12.613Z,4.72
2019-05-03T03:07:46.563Z,5.62
2019-05-03T03:10:18.720Z,5.20
2019-05-03T03:12:55.120Z,5.17
2019-05-03T03:15:26.259Z,4.90
2019-05-03T03:17:59.243Z,5.15
2019-05-03T03:20:30.303Z,5.03
2019-05-03T03:23:06.016Z,5.30
2019-05-03T03:25:39.496Z,5.10
2019-05-03T03:28:12.687Z,5.00
2019-05-03T03:31:27.801Z,4.92
2019-05-03T03:33:59.255Z,5.33
2019-05-03T03:36:45.942Z,5.40
2019-05-03T03:39:05.798Z,5.80
2019-05-03T03:41:35.427Z,5.87
2019-05-03T03:44:06.121Z,5.35
2019-05-03T03:46:37.265Z,4.90
2019-05-03T03:49:09.625Z,4.50
2019-05-03T03:51:41.262Z,4.92
2019-05-03T03:54:15.564Z,5.15
2019-05-03T03:56:59.258Z,4.87
2019-05-03T03:59:26.184Z,5.10
2019-05-03T04:01:55.949Z,4.80
2019-05-03T04:04:26.631Z,4.83
2019-05-03T04:07:01.264Z,4.60
2019-05-03T04:09:29.479Z,4.55
2019-05-03T04:12:00.086Z,4.78
2019-05-03T04:14:45.134Z,4.50
2019-05-03T04:17:36.359Z,4.15
2019-05-03T04:20:08.771Z,4.10
2019-05-03T04:22:39.434Z,4.50
2019-05-03T04:25:09.946Z,4.35
2019-05-03T04:27:40.410Z,4.10
2019-05-03T04:30:11.538Z,4.45
2019-05-03T04:32:42.136Z,4.37
2019-05-03T04:35:12.620Z,4.37
2019-05-03T04:37:45.328Z,4.30
2019-05-03T04:40:15.895Z,4.30
2019-05-03T04:42:46.886Z,4.42
2019-05-03T04:45:17.330Z,4.50
2019-05-03T04:47:47.833Z,4.85
2019-05-03T04:50:18.358Z,4.75
2019-05-03T04:52:48.854Z,4.22
2019-05-03T04:55:19.379Z,4.85
2019-05-03T04:57:50.678Z,4.55
2019-05-03T05:00:21.364Z,4.20
2019-05-03T05:02:51.894Z,5.05
2019-05-03T05:05:22.391Z,4.30
2019-05-03T05:07:55.473Z,5.08
2019-05-03T05:10:26.006Z,4.65
2019-05-03T05:12:57.107Z,4.83
2019-05-03T05:15:27.582Z,4.50
2019-05-03T05:18:10.114Z,4.42
2019-05-03T05:20:47.769Z,5.10
2019-05-03T05:23:18.384Z,5.20
2019-05-03T05:25:55.045Z,5.33
2019-05-03T05:28:35.489Z,5.20
2019-05-03T05:31:06.205Z,5.08
2019-05-03T05:33:36.677Z,5.25
2019-05-03T05:36:07.170Z,4.67
2019-05-03T05:38:37.607Z,5.03
2019-05-03T05:41:08.267Z,5.03
2019-05-03T05:43:38.802Z,4.92
2019-05-03T05:46:09.375Z,4.92
2019-05-03T05:48:45.508Z,5.03
2019-05-03T05:51:16.254Z,5.12
2019-05-03T05:53:46.964Z,5.60
2019-05-03T05:56:48.407Z,5.30
2019-05-03T05:59:37.803Z,5.20
2019-05-03T06:02:10.293Z,5.65
2019-05-03T06:04:40.793Z,5.00
2019-05-03T06:07:29.027Z,5.20
2019-05-03T06:10:14.700Z,5.42
2019-05-03T06:13:05.030Z,5.03
2019-05-03T06:15:50.673Z,5.47
2019-05-03T06:18:26.050Z,4.72
2019-05-03T06:21:18.467Z,4.97
2019-05-03T06:23:56.278Z,5.58
2019-05-03T06:26:41.193Z,4.55
2019-05-03T06:29:11.713Z,4.85
2019-05-03T06:31:59.961Z,4.67
2019-05-03T06:34:30.458Z,5.33
2019-05-03T06:37:04.538Z,5.15
2019-05-03T06:39:36.134Z,4.58
2019-05-03T06:42:09.873Z,5.10
2019-05-03T06:44:39.031Z,5.00
2019-05-03T06:47:10.565Z,5.05
2019-05-03T06:49:44.889Z,4.90
2019-05-03T06:52:14.725Z,4.95
2019-05-03T06:54:45.385Z,5.65
2019-05-03T06:57:17.591Z,4.90
2019-05-03T06:59:56.631Z,5.03
2019-05-03T07:02:39.891Z,5.33
2019-05-03T07:05:19.035Z,4.87
2019-05-03T07:07:56.342Z,4.22
2019-05-03T07:10:32.261Z,4.67
2019-05-03T07:13:05.079Z,4.00
2019-05-03T07:15:35.809Z,3.98
2019-05-03T07:18:06.545Z,4.70
2019-05-03T07:20:56.922Z,4.12
2019-05-03T07:23:26.755Z,4.12
2019-05-03T07:25:57.287Z,4.10
2019-05-03T07:28:27.925Z,3.72
2019-05-03T07:30:58.469Z,3.98
2019-05-03T07:33:31.155Z,3.75
2019-05-03T07:36:01.745Z,4.15
2019-05-03T07:38:32.413Z,3.75
2019-05-03T07:41:05.104Z,4.05
2019-05-03T07:43:36.072Z,3.70
2019-05-03T07:46:06.678Z,3.72
2019-05-03T07:48:37.531Z,4.40
2019-05-03T07:51:08.017Z,4.42
2019-05-03T07:53:38.655Z,4.50
2019-05-03T07:56:15.460Z,16.30
2019-05-03T07:58:59.980Z,4.90
2019-05-03T08:01:35.394Z,4.55
2019-05-03T08:04:07.984Z,4.40
2019-05-03T08:06:38.614Z,4.10
2019-05-03T08:09:09.767Z,3.85
2019-05-03T08:11:40.353Z,3.80
2019-05-03T08:14:10.915Z,3.37
2019-05-03T08:16:41.447Z,3.00
2019-05-03T08:19:12.124Z,3.10
2019-05-03T08:21:42.631Z,3.62
2019-05-03T08:24:14.900Z,3.05
2019-05-03T08:26:45.580Z,3.00
2019-05-03T08:29:19.403Z,3.08
2019-05-03T08:32:06.186Z,3.42
2019-05-03T08:35:05.679Z,3.72
2019-05-03T08:37:50.911Z,3.00
2019-05-03T08:40:24.626Z,3.12
2019-05-03T08:42:55.146Z,2.92
2019-05-03T08:45:25.778Z,2.85
2019-05-03T08:47:57.603Z,3.50
2019-05-03T08:50:28.147Z,2.80
2019-05-03T08:52:59.775Z,3.45
2019-05-03T08:55:31.382Z,3.08
2019-05-03T08:58:01.908Z,3.52
2019-05-03T09:00:35.326Z,3.08
2019-05-03T09:03:05.837Z,3.42
2019-05-03T09:05:36.465Z,3.08
2019-05-03T09:08:07.064Z,2.65
2019-05-03T09:10:45.913Z,2.62
2019-05-03T09:13:20.187Z,3.47
2019-05-03T09:15:51.483Z,2.80
2019-05-03T09:18:22.075Z,2.90
2019-05-03T09:20:52.647Z,2.92
2019-05-03T09:23:25.919Z,3.58
2019-05-03T09:25:55.308Z,3.30
2019-05-03T09:28:29.055Z,3.05
2019-05-03T09:30:58.000Z,2.95
2019-05-03T09:33:28.514Z,3.47
2019-05-03T09:35:58.972Z,3.35
2019-05-03T09:38:29.503Z,2.92
2019-05-03T09:40:59.968Z,3.00
2019-05-03T09:43:30.544Z,2.77
2019-05-03T09:46:01.323Z,2.83
2019-05-03T09:48:31.824Z,3.80
2019-05-03T09:51:02.552Z,2.95
2019-05-03T09:53:37.882Z,3.22
2019-05-03T09:56:08.412Z,2.70
2019-05-03T09:58:39.069Z,2.65
2019-05-03T10:01:09.529Z,2.72
2019-05-03T10:03:40.542Z,3.10
2019-05-03T10:06:14.153Z,2.50
2019-05-03T10:08:45.409Z,3.02
2019-05-03T10:11:16.062Z,3.67
2019-05-03T10:13:48.673Z,2.40
2019-05-03T10:16:19.914Z,2.30
2019-05-03T10:18:50.424Z,2.77
2019-05-03T10:21:25.644Z,2.40
2019-05-03T10:23:55.682Z,2.37
2019-05-03T10:26:27.041Z,2.75
2019-05-03T10:28:57.600Z,2.27
2019-05-03T10:31:35.492Z,2.72
2019-05-03T10:36:36.516Z,2.50
2019-05-03T10:39:07.217Z,2.08
2019-05-03T10:41:39.353Z,2.35
2019-05-03T10:44:09.953Z,2.15
2019-05-03T10:46:40.534Z,2.00
2019-05-03T10:49:11.064Z,2.15
2019-05-03T10:51:46.194Z,2.22
2019-05-03T10:54:16.686Z,2.50
2019-05-03T10:56:58.516Z,2.83
2019-05-03T10:59:29.039Z,2.90
2019-05-03T11:02:18.523Z,2.40
2019-05-03T11:04:48.996Z,2.30
2019-05-03T11:07:19.468Z,2.45
2019-05-03T11:09:52.469Z,2.67
2019-05-03T11:12:22.151Z,2.00
2019-05-03T11:14:53.723Z,2.05
2019-05-03T11:17:25.657Z,2.10
2019-05-03T11:19:56.757Z,2.50
2019-05-03T11:22:27.300Z,2.47
2019-05-03T11:24:57.984Z,2.50
2019-05-03T11:27:35.384Z,2.50
2019-05-03T11:30:09.193Z,2.92
2019-05-03T11:32:55.808Z,3.17
2019-05-03T11:35:45.129Z,2.20
2019-05-03T11:38:21.722Z,2.30
2019-05-03T11:40:52.207Z,2.60
2019-05-03T11:43:24.746Z,2.35
2019-05-03T11:45:55.561Z,2.70
2019-05-03T11:48:26.167Z,2.47
2019-05-03T11:50:56.703Z,2.45
2019-05-03T11:53:27.297Z,2.42
2019-05-03T11:55:57.848Z,2.75
2019-05-03T11:58:28.410Z,2.75
2019-05-03T12:01:15.717Z,3.00
2019-05-03T12:03:41.623Z,2.77
2019-05-03T12:06:12.096Z,3.47
2019-05-03T12:08:44.643Z,2.90
2019-05-03T12:11:15.130Z,2.98
2019-05-03T12:13:45.907Z,2.75
2019-05-03T12:16:23.873Z,2.90
2019-05-03T12:18:53.235Z,3.10
2019-05-03T12:21:22.170Z,2.83
2019-05-03T12:23:54.001Z,3.00
2019-05-03T12:26:27.144Z,2.65
2019-05-03T12:28:57.211Z,2.62
2019-05-03T12:31:36.595Z,2.35
2019-05-03T12:33:59.903Z,2.70
2019-05-03T12:36:30.409Z,2.80
2019-05-03T12:39:00.849Z,3.05
2019-05-03T12:41:32.963Z,3.40
2019-05-03T12:44:04.666Z,3.33
2019-05-03T12:46:35.436Z,3.62
2019-05-03T12:49:05.374Z,3.60
2019-05-03T12:51:37.018Z,3.15
2019-05-03T12:54:07.627Z,3.45
2019-05-03T12:56:38.303Z,3.08
2019-05-03T12:59:27.695Z,4.05
2019-05-03T13:02:10.070Z,4.10
2019-05-03T13:04:40.768Z,3.52
2019-05-03T13:07:30.176Z,3.60
2019-05-03T13:10:00.673Z,5.20
2019-05-03T13:12:31.208Z,3.30
2019-05-03T13:15:01.789Z,3.42
2019-05-03T13:17:36.708Z,3.65
2019-05-03T13:20:12.843Z,3.58
2019-05-03T13:22:45.763Z,3.90
2019-05-03T13:25:17.757Z,3.92
2019-05-03T13:27:48.236Z,3.87
2019-05-03T13:30:19.024Z,3.90
2019-05-03T13:32:50.619Z,3.90
2019-05-03T13:35:21.121Z,3.70
2019-05-03T13:37:51.672Z,4.30
2019-05-03T13:40:22.223Z,4.35
2019-05-03T13:42:57.216Z,4.58
2019-05-03T13:45:24.891Z,4.72
2019-05-03T13:47:58.477Z,4.60
2019-05-03T13:50:28.972Z,5.08
2019-05-03T13:52:59.446Z,5.00
2019-05-03T13:55:29.914Z,5.47
2019-05-03T13:58:00.443Z,5.72
2019-05-03T14:00:30.946Z,5.92
2019-05-03T14:03:01.455Z,5.87
2019-05-03T14:05:31.987Z,5.97
2019-05-03T14:08:04.815Z,5.97
2019-05-03T14:10:36.021Z,6.47
2019-05-03T14:13:06.003Z,5.92
2019-05-03T14:15:36.405Z,5.50
2019-05-03T14:18:06.932Z,5.22
2019-05-03T14:21:05.090Z,4.78
2019-05-03T14:23:54.325Z,5.20
2019-05-03T14:26:24.819Z,4.70
2019-05-03T14:28:55.373Z,4.90
2019-05-03T14:31:25.849Z,5.30
2019-05-03T14:33:58.037Z,5.00
2019-05-03T14:36:28.530Z,4.90
2019-05-03T14:38:59.042Z,4.15
2019-05-03T14:41:29.619Z,4.90
2019-05-03T14:44:00.191Z,4.45
2019-05-03T14:46:33.414Z,4.03
2019-05-03T14:49:02.776Z,4.90
2019-05-03T14:51:34.974Z,3.90
2019-05-03T14:54:07.009Z,4.08
2019-05-03T14:56:49.589Z,4.65
2019-05-03T14:59:37.992Z,4.42
2019-05-03T15:02:50.587Z,3.77
2019-05-03T15:05:17.950Z,3.75
2019-05-03T15:07:48.472Z,3.60
2019-05-03T15:10:19.051Z,3.08
2019-05-03T15:12:49.568Z,3.80
2019-05-03T15:15:20.125Z,4.30
2019-05-03T15:17:50.647Z,3.40
2019-05-03T15:20:21.162Z,5.37
2019-05-03T15:22:51.675Z,4.70
2019-05-03T15:25:22.243Z,3.47
2019-05-03T15:27:52.833Z,3.37
2019-05-03T15:30:25.243Z,3.10
2019-05-03T15:33:00.428Z,4.30
2019-05-03T15:35:27.802Z,3.60
2019-05-03T15:37:57.679Z,3.25
2019-05-03T15:40:28.319Z,3.40
2019-05-03T15:43:14.917Z,3.40
2019-05-03T15:46:10.687Z,3.52
2019-05-03T15:48:45.832Z,3.27
2019-05-03T15:51:17.535Z,3.40
2019-05-03T15:53:48.123Z,3.60
2019-05-03T15:56:18.708Z,3.90
2019-05-03T15:58:49.296Z,3.80
2019-05-03T16:01:19.789Z,4.00
2019-05-03T16:03:50.377Z,3.80
2019-05-03T16:06:20.877Z,3.50
2019-05-03T16:08:51.487Z,3.45
2019-05-03T16:11:21.957Z,3.80
2019-05-03T16:13:51.945Z,3.70
2019-05-03T16:16:22.373Z,4.50
2019-05-03T16:18:52.985Z,4.37
2019-05-03T16:21:25.176Z,3.72
2019-05-03T16:23:55.740Z,3.80
2019-05-03T16:26:26.253Z,3.67
2019-05-03T16:29:05.728Z,3.95
2019-05-03T16:31:36.318Z,4.15
2019-05-03T16:34:06.827Z,3.58
2019-05-03T16:36:37.389Z,3.70
2019-05-03T16:39:09.463Z,3.90
2019-05-03T16:41:41.587Z,3.80
2019-05-03T16:44:12.150Z,4.75
2019-05-03T16:46:44.838Z,4.03
2019-05-03T16:49:15.720Z,4.30
2019-05-03T16:51:46.416Z,4.47
2019-05-03T16:54:16.906Z,4.03
2019-05-03T16:56:47.418Z,4.10
2019-05-03T16:59:17.961Z,4.05
2019-05-03T17:01:48.447Z,4.80
2019-05-03T17:04:34.536Z,3.90
2019-05-03T17:07:15.256Z,4.58
2019-05-03T17:10:07.582Z,4.40
2019-05-03T17:12:38.437Z,4.15
2019-05-03T17:15:10.019Z,3.98
2019-05-03T17:17:40.585Z,3.50
2019-05-03T17:20:11.684Z,4.33
2019-05-03T17:22:42.379Z,4.83
2019-05-03T17:25:14.906Z,5.03
2019-05-03T17:27:45.373Z,5.30
2019-05-03T17:30:16.306Z,5.05
2019-05-03T17:32:46.932Z,5.28
2019-05-03T17:35:17.532Z,4.70
2019-05-03T17:37:48.146Z,4.83
2019-05-03T17:40:36.551Z,5.60
2019-05-03T17:43:17.938Z,6.50
2019-05-03T17:45:51.343Z,6.95
2019-05-03T17:48:21.957Z,5.25
2019-05-03T17:50:52.658Z,3.30
2019-05-03T17:53:45.133Z,3.58
2019-05-03T17:56:19.941Z,3.50
2019-05-03T17:58:56.482Z,3.20
2019-05-03T18:01:52.293Z,4.45
2019-05-03T18:04:30.578Z,3.05
2019-05-03T18:07:24.287Z,3.75
2019-05-03T18:09:55.469Z,4.80
2019-05-03T18:12:26.051Z,3.27
2019-05-03T18:14:56.687Z,3.17
2019-05-03T18:17:27.284Z,3.50
2019-05-03T18:19:57.771Z,3.62
2019-05-03T18:22:28.298Z,2.83
2019-05-03T18:24:58.893Z,2.80
2019-05-03T18:27:29.564Z,4.25
2019-05-03T18:30:01.364Z,3.65
2019-05-03T18:32:34.347Z,4.67
2019-05-03T18:35:05.444Z,3.15
2019-05-03T18:37:35.954Z,3.00
2019-05-03T18:40:07.098Z,2.85
2019-05-03T18:42:44.801Z,2.60
2019-05-03T18:45:20.420Z,2.80
2019-05-03T18:47:51.006Z,2.80
2019-05-03T18:50:21.682Z,3.35
2019-05-03T18:52:52.174Z,3.50
2019-05-03T18:55:22.681Z,3.70
2019-05-03T18:57:54.716Z,3.70
2019-05-03T19:00:26.977Z,3.50
2019-05-03T19:02:57.520Z,3.27
2019-05-03T19:05:29.740Z,3.50
2019-05-03T19:08:11.716Z,3.17
2019-05-03T19:10:49.599Z,3.45
2019-05-03T19:13:26.625Z,4.12
2019-05-03T19:15:59.221Z,3.60
2019-05-03T19:18:31.762Z,3.62
2019-05-03T19:21:04.505Z,3.22
2019-05-03T19:23:35.502Z,3.55
2019-05-03T19:26:07.312Z,3.52
2019-05-03T19:28:38.041Z,3.72
2019-05-03T19:31:08.743Z,3.60
2019-05-03T19:33:39.303Z,3.92
2019-05-03T19:36:09.917Z,4.08
2019-05-03T19:38:55.705Z,5.60
2019-05-03T19:41:26.393Z,5.20
2019-05-03T19:43:57.037Z,4.03
2019-05-03T19:46:27.627Z,4.10
2019-05-03T19:48:58.395Z,3.83
2019-05-03T19:51:28.984Z,4.22
2019-05-03T19:53:59.515Z,4.00
2019-05-03T19:56:30.144Z,3.62
2019-05-03T19:59:04.704Z,3.70
2019-05-03T20:01:55.091Z,3.60
2019-05-03T20:04:33.921Z,3.40
2019-05-03T20:07:26.574Z,3.72
2019-05-03T20:09:57.128Z,3.55
2019-05-03T20:12:27.704Z,3.92
2019-05-03T20:14:58.190Z,3.87
2019-05-03T20:17:28.953Z,4.58
2019-05-03T20:19:59.517Z,4.40
2019-05-03T20:22:30.095Z,5.60
2019-05-03T20:25:00.597Z,6.97
2019-05-03T20:27:31.270Z,4.83
2019-05-03T20:30:01.757Z,7.30
2019-05-03T20:32:34.508Z,4.80
2019-05-03T20:35:16.582Z,3.95
2019-05-03T20:37:37.827Z,3.67
2019-05-03T20:40:08.490Z,5.17
2019-05-03T20:42:56.954Z,4.90
2019-05-03T20:45:46.606Z,4.17
2019-05-03T20:48:18.434Z,5.40
2019-05-03T20:50:48.902Z,4.00
2019-05-03T20:53:19.428Z,4.45
2019-05-03T20:55:50.210Z,5.92
2019-05-03T20:58:20.820Z,6.65
2019-05-03T21:00:51.358Z,5.30
2019-05-03T21:03:21.990Z,4.87
2019-05-03T21:05:52.760Z,4.03
2019-05-03T21:08:25.290Z,4.00
2019-05-03T21:10:55.554Z,3.50
2019-05-03T21:13:38.611Z,3.27
2019-05-03T21:16:15.736Z,3.70
2019-05-03T21:19:01.683Z,4.08
2019-05-03T21:21:55.001Z,3.65
2019-05-03T21:24:34.753Z,4.15
2019-05-03T21:27:05.373Z,4.40
2019-05-03T21:29:48.900Z,3.95
2019-05-03T21:32:20.304Z,4.20
2019-05-03T21:34:51.164Z,4.40
2019-05-03T21:37:21.775Z,4.08
2019-05-03T21:39:54.631Z,4.25
2019-05-03T21:42:24.732Z,4.40
2019-05-03T21:44:55.594Z,4.95
2019-05-03T21:47:54.794Z,4.42
2019-05-03T21:50:25.680Z,4.22
2019-05-03T21:53:05.629Z,4.28
2019-05-03T21:55:35.723Z,4.28
2019-05-03T21:58:06.223Z,4.12
2019-05-03T22:00:54.863Z,4.10
2019-05-03T22:03:25.700Z,4.37
2019-05-03T22:05:58.065Z,3.90
2019-05-03T22:08:28.580Z,4.10
2019-05-03T22:11:00.309Z,3.72
2019-05-03T22:13:30.842Z,3.98
2019-05-03T22:16:24.628Z,3.90
2019-05-03T22:18:55.166Z,3.77
2019-05-03T22:21:37.177Z,3.60
2019-05-03T22:24:33.852Z,3.20
2019-05-03T22:27:08.947Z,3.35
2019-05-03T22:29:38.901Z,3.17
2019-05-03T22:32:09.252Z,3.50
2019-05-03T22:34:39.759Z,3.05
2019-05-03T22:37:10.241Z,3.33
2019-05-03T22:39:40.715Z,3.20
2019-05-03T22:42:11.302Z,3.20
2019-05-03T22:44:41.944Z,3.35
2019-05-03T22:47:12.459Z,2.83
2019-05-03T22:49:45.445Z,3.40
2019-05-03T22:52:15.474Z,3.10
2019-05-03T22:54:46.083Z,2.98
2019-05-03T22:57:16.573Z,3.30
2019-05-03T22:59:47.086Z,3.77
2019-05-03T23:02:17.663Z,3.05
2019-05-03T23:04:48.139Z,3.40
2019-05-03T23:07:18.720Z,3.37
2019-05-03T23:09:49.249Z,3.12
2019-05-03T23:12:19.760Z,3.40
2019-05-03T23:14:50.307Z,3.55
2019-05-03T23:17:20.880Z,3.90
2019-05-03T23:19:56.663Z,3.33
2019-05-03T23:22:30.039Z,3.40
2019-05-03T23:25:00.559Z,3.30
2019-05-03T23:27:31.117Z,3.45
2019-05-03T23:30:01.692Z,3.60
2019-05-03T23:32:32.255Z,3.22
2019-05-03T23:35:04.816Z,4.03
2019-05-03T23:37:35.052Z,3.25
2019-05-03T23:40:07.552Z,3.33
2019-05-03T23:42:39.249Z,3.20
2019-05-03T23:45:09.971Z,3.10
2019-05-03T23:47:45.907Z,3.50
2019-05-03T23:50:18.690Z,3.42
2019-05-03T23:52:49.184Z,3.05
2019-05-03T23:55:50.661Z,2.87
2019-05-03T23:58:21.228Z,2.95
